Edgeley, North Dakota
Current Conditions -  °F | °C
As of 6:56 PM on Friday 24 Oct 2014 (Local Time) from KJMS Reporting Station
Clear Clear  
Wind Chill: 57°   Ceiling: Unl
Heat Index: 57°   Visibility: 10mi
Dew Point: 34°   Wind: 10mph
Humidity: 42%   Direction: 290°WNW
Pressure: 29.9"   Gusts: NA
Location:  46.36°N, 98.72°W
Report Text: KJMS 242356Z AUTO 29009KT 10SM CLR 14/01 A2990 RMK AO2 SLP133 T01390011 10217 20139 51024
Loading
Personal Weather Stations






























Interactive Weather Map
Tropical Storm Tracking
New forecast layout! Learn more

10-Day Weather Forecast

Advertisements
Track Severe Weather on mobile